createdAt,value
2023-05-07T00:01:32.481Z,22.40
2023-05-07T00:04:02.134Z,22.40
2023-05-07T00:06:30.380Z,22.80
2023-05-07T00:08:59.190Z,22.30
2023-05-07T00:11:27.752Z,22.60
2023-05-07T00:13:55.875Z,22.20
2023-05-07T00:16:24.148Z,22.20
2023-05-07T00:18:52.252Z,22.20
2023-05-07T00:21:22.442Z,22.20
2023-05-07T00:23:50.615Z,22.40
2023-05-07T00:26:18.673Z,22.30
2023-05-07T00:28:46.748Z,22.70
2023-05-07T00:31:14.836Z,22.30
2023-05-07T00:33:42.836Z,22.30
2023-05-07T00:36:10.974Z,22.90
2023-05-07T00:38:40.491Z,22.30
2023-05-07T00:41:08.529Z,22.50
2023-05-07T00:43:36.520Z,22.20
2023-05-07T00:46:04.675Z,22.70
2023-05-07T00:48:32.877Z,22.20
2023-05-07T00:51:00.941Z,22.40
2023-05-07T00:53:29.179Z,22.20
2023-05-07T00:55:59.205Z,22.50
2023-05-07T00:58:27.242Z,22.40
2023-05-07T01:00:55.534Z,22.20
2023-05-07T01:03:23.724Z,22.60
2023-05-07T01:05:53.193Z,22.10
2023-05-07T01:08:22.181Z,22.60
2023-05-07T01:10:50.843Z,22.30
2023-05-07T01:13:21.544Z,22.60
2023-05-07T01:15:49.821Z,22.50
2023-05-07T01:18:18.087Z,22.20
2023-05-07T01:20:46.668Z,22.30
2023-05-07T01:23:17.329Z,22.30
2023-05-07T01:25:45.284Z,22.10
2023-05-07T01:28:13.243Z,22.10
2023-05-07T01:30:46.462Z,22.20
2023-05-07T01:33:18.036Z,22.30
2023-05-07T01:35:49.682Z,22.40
2023-05-07T01:38:20.497Z,22.10
2023-05-07T01:40:48.843Z,22.10
2023-05-07T01:43:16.975Z,22.30
2023-05-07T01:45:45.681Z,22.70
2023-05-07T01:48:14.862Z,22.50
2023-05-07T01:50:43.945Z,22.50
2023-05-07T01:53:11.969Z,22.70
2023-05-07T01:55:41.320Z,22.60
2023-05-07T01:58:09.260Z,22.20
2023-05-07T02:00:37.606Z,22.60
2023-05-07T02:03:05.769Z,22.30
2023-05-07T02:05:33.825Z,22.10
2023-05-07T02:08:01.817Z,22.30
2023-05-07T02:10:29.794Z,22.10
2023-05-07T02:12:59.107Z,22.60
2023-05-07T02:15:27.703Z,22.60
2023-05-07T02:18:03.821Z,22.60
2023-05-07T02:20:31.890Z,22.60
2023-05-07T02:22:59.904Z,22.30
2023-05-07T02:25:28.007Z,22.50
2023-05-07T02:27:56.132Z,22.20
2023-05-07T02:30:27.576Z,22.20
2023-05-07T02:32:55.802Z,22.10
2023-05-07T02:35:23.949Z,22.20
2023-05-07T02:37:51.886Z,22.10
2023-05-07T02:40:20.448Z,22.00
2023-05-07T02:42:48.808Z,22.20
2023-05-07T02:45:17.002Z,22.20
2023-05-07T02:47:46.555Z,22.20
2023-05-07T02:50:14.730Z,22.30
2023-05-07T02:52:42.683Z,22.20
2023-05-07T02:55:11.584Z,22.10
2023-05-07T02:57:39.603Z,22.80
2023-05-07T03:00:16.697Z,22.30
2023-05-07T03:02:46.105Z,22.50
2023-05-07T03:05:15.214Z,22.10
2023-05-07T03:07:46.116Z,22.10
2023-05-07T03:10:14.262Z,22.70
2023-05-07T03:12:42.260Z,22.30
2023-05-07T03:15:12.346Z,22.10
2023-05-07T03:17:40.472Z,22.10
2023-05-07T03:20:12.062Z,22.30
2023-05-07T03:22:40.242Z,22.30
2023-05-07T03:25:10.359Z,22.30
2023-05-07T03:27:38.946Z,22.20
2023-05-07T03:30:09.766Z,22.30
2023-05-07T03:32:38.164Z,22.30
2023-05-07T03:35:07.118Z,22.50
2023-05-07T03:37:36.481Z,22.20
2023-05-07T03:40:04.932Z,22.20
2023-05-07T03:42:32.990Z,22.30
2023-05-07T03:45:01.059Z,22.60
2023-05-07T03:47:29.137Z,22.30
2023-05-07T03:49:57.854Z,22.30
2023-05-07T03:52:26.986Z,22.60
2023-05-07T03:54:56.402Z,22.20
2023-05-07T03:57:24.431Z,22.30
2023-05-07T03:59:52.357Z,22.20
2023-05-07T04:02:20.419Z,22.20
2023-05-07T04:04:50.370Z,22.20
2023-05-07T04:07:18.451Z,22.10
2023-05-07T04:09:46.426Z,22.20
2023-05-07T04:12:17.009Z,22.20
2023-05-07T04:14:45.006Z,22.20
2023-05-07T04:17:13.070Z,22.20
2023-05-07T04:19:45.987Z,22.20
2023-05-07T04:22:14.002Z,22.10
2023-05-07T04:24:41.974Z,22.20
2023-05-07T04:27:09.982Z,22.40
2023-05-07T04:29:43.011Z,22.60
2023-05-07T04:32:11.486Z,22.10
2023-05-07T04:34:39.529Z,22.20
2023-05-07T04:37:07.526Z,22.30
2023-05-07T04:39:36.236Z,22.40
2023-05-07T04:42:04.931Z,22.30
2023-05-07T04:44:32.926Z,22.20
2023-05-07T04:47:02.381Z,22.30
2023-05-07T04:49:30.322Z,22.60
2023-05-07T04:51:58.296Z,22.50
2023-05-07T04:54:26.225Z,22.70
2023-05-07T04:56:54.255Z,22.70
2023-05-07T04:59:22.297Z,22.30
2023-05-07T05:01:50.324Z,22.20
2023-05-07T05:04:19.626Z,22.30
2023-05-07T05:06:47.613Z,22.30
2023-05-07T05:09:16.844Z,22.30
2023-05-07T05:11:44.818Z,22.30
2023-05-07T05:14:12.854Z,22.90
2023-05-07T05:16:40.953Z,22.40
2023-05-07T05:19:08.942Z,22.70
2023-05-07T05:21:38.272Z,22.50
2023-05-07T05:24:06.961Z,22.90
2023-05-07T05:26:35.012Z,22.70
2023-05-07T05:29:03.113Z,22.40
2023-05-07T05:31:31.121Z,22.40
2023-05-07T05:33:59.121Z,22.80
2023-05-07T05:36:27.167Z,22.60
2023-05-07T05:38:57.306Z,22.70
2023-05-07T05:41:25.843Z,22.90
2023-05-07T05:43:54.205Z,22.90
2023-05-07T05:46:22.338Z,22.50
2023-05-07T05:48:50.390Z,22.60
2023-05-07T05:51:18.345Z,22.90
2023-05-07T05:53:46.341Z,22.70
2023-05-07T05:56:16.017Z,23.00
2023-05-07T05:58:44.180Z,22.90
2023-05-07T06:01:12.921Z,22.90
2023-05-07T06:03:41.180Z,22.60
2023-05-07T06:06:09.147Z,23.20
2023-05-07T06:08:37.153Z,23.00
2023-05-07T06:11:05.280Z,23.10
2023-05-07T06:13:34.611Z,23.00
2023-05-07T06:16:02.648Z,22.80
2023-05-07T06:18:30.651Z,22.50
2023-05-07T06:20:58.739Z,22.80
2023-05-07T06:23:26.768Z,22.80
2023-05-07T06:25:54.852Z,22.50
2023-05-07T06:28:22.872Z,22.80
2023-05-07T06:30:52.223Z,22.50
2023-05-07T06:33:20.896Z,22.90
2023-05-07T06:35:49.110Z,22.80
2023-05-07T06:38:17.182Z,22.70
2023-05-07T06:40:45.243Z,22.90
2023-05-07T06:43:13.193Z,22.90
2023-05-07T06:45:41.121Z,22.80
2023-05-07T06:48:10.558Z,22.60
2023-05-07T06:50:38.538Z,22.90
2023-05-07T06:53:06.583Z,23.00
2023-05-07T06:55:34.560Z,23.10
2023-05-07T06:58:02.709Z,23.20
2023-05-07T07:00:30.641Z,23.10
2023-05-07T07:03:00.296Z,22.70
2023-05-07T07:05:29.726Z,23.10
2023-05-07T07:07:57.697Z,23.00
2023-05-07T07:10:26.045Z,23.00
2023-05-07T07:12:54.313Z,23.00
2023-05-07T07:15:22.527Z,23.00
2023-05-07T07:17:50.739Z,22.60
2023-05-07T07:20:19.079Z,22.70
2023-05-07T07:22:48.475Z,22.90
2023-05-07T07:25:16.519Z,22.80
2023-05-07T07:27:44.470Z,23.20
2023-05-07T07:30:13.278Z,22.60
2023-05-07T07:32:41.671Z,23.00
2023-05-07T07:35:11.233Z,22.70
2023-05-07T07:37:39.241Z,23.00
2023-05-07T07:40:10.817Z,23.00
2023-05-07T07:42:38.917Z,23.00
2023-05-07T07:45:09.219Z,23.10
2023-05-07T07:47:37.242Z,23.00
2023-05-07T07:50:06.535Z,23.10
2023-05-07T07:52:34.664Z,23.00
2023-05-07T07:55:03.317Z,22.90
2023-05-07T07:57:32.957Z,22.80
2023-05-07T08:00:01.749Z,23.10
2023-05-07T08:02:29.968Z,23.00
2023-05-07T08:04:58.002Z,23.20
2023-05-07T08:07:26.006Z,23.00
2023-05-07T08:09:54.016Z,23.60
2023-05-07T08:12:22.245Z,23.40
2023-05-07T08:14:51.570Z,23.20
2023-05-07T08:17:19.556Z,23.10
2023-05-07T08:19:47.623Z,23.30
2023-05-07T08:22:15.936Z,23.40
2023-05-07T08:24:43.972Z,23.60
2023-05-07T08:27:12.051Z,23.70
2023-05-07T08:29:40.406Z,23.70
2023-05-07T08:32:09.694Z,23.40
2023-05-07T08:34:37.748Z,23.70
2023-05-07T08:37:05.828Z,23.70
2023-05-07T08:39:33.757Z,23.70
2023-05-07T08:42:04.871Z,23.70
2023-05-07T08:44:36.693Z,23.70
2023-05-07T08:47:04.842Z,23.70
2023-05-07T08:49:36.114Z,23.90
2023-05-07T08:52:04.308Z,23.70
2023-05-07T08:54:33.672Z,23.90
2023-05-07T08:57:01.914Z,23.50
2023-05-07T08:59:29.914Z,23.90
2023-05-07T09:01:58.202Z,23.90
2023-05-07T09:04:26.313Z,23.70
2023-05-07T09:06:56.249Z,23.90
2023-05-07T09:09:24.690Z,23.90
2023-05-07T09:11:59.591Z,23.80
2023-05-07T09:14:27.899Z,23.80
2023-05-07T09:16:56.005Z,23.50
2023-05-07T09:19:28.362Z,23.50
2023-05-07T09:22:07.903Z,24.00
2023-05-07T09:24:38.629Z,23.90
2023-05-07T09:27:07.813Z,23.90
2023-05-07T09:29:36.479Z,23.50
2023-05-07T09:32:05.812Z,23.80
2023-05-07T09:34:34.221Z,23.90
2023-05-07T09:37:06.284Z,23.70
2023-05-07T09:39:44.956Z,23.50
2023-05-07T09:42:13.330Z,23.60
2023-05-07T09:44:42.166Z,23.90
2023-05-07T09:47:10.750Z,23.70
2023-05-07T09:49:43.212Z,23.90
2023-05-07T09:52:12.682Z,23.90
2023-05-07T09:54:43.956Z,23.90
2023-05-07T09:57:13.723Z,23.70
2023-05-07T09:59:44.547Z,23.80
2023-05-07T10:02:14.782Z,23.80
2023-05-07T10:04:43.349Z,23.90
2023-05-07T10:07:12.971Z,23.90
2023-05-07T10:09:43.831Z,23.80
2023-05-07T10:12:12.157Z,23.80
2023-05-07T10:14:40.420Z,23.80
2023-05-07T10:17:09.034Z,23.50
2023-05-07T10:19:39.973Z,23.80
2023-05-07T10:22:08.788Z,23.90
2023-05-07T10:24:38.921Z,23.90
2023-05-07T10:27:12.062Z,24.10
2023-05-07T10:29:54.754Z,23.80
2023-05-07T10:32:45.061Z,23.60
2023-05-07T10:35:18.486Z,23.80
2023-05-07T10:37:47.614Z,24.00
2023-05-07T10:40:18.670Z,24.00
2023-05-07T10:42:57.848Z,23.70
2023-05-07T10:45:27.089Z,24.00
2023-05-07T10:50:46.254Z,23.90
2023-05-07T10:53:30.525Z,24.10
2023-05-07T10:56:28.989Z,24.10
2023-05-07T10:58:57.930Z,24.20
2023-05-07T11:01:52.073Z,24.00
2023-05-07T11:04:25.370Z,23.80
2023-05-07T11:07:33.422Z,23.90
2023-05-07T11:10:07.406Z,24.20
2023-05-07T11:12:58.157Z,24.30
2023-05-07T11:15:42.840Z,23.90
2023-05-07T11:18:11.978Z,23.90
2023-05-07T11:20:52.990Z,24.20
2023-05-07T11:24:01.745Z,24.30
2023-05-07T11:26:32.267Z,24.40
2023-05-07T11:29:02.468Z,24.50
2023-05-07T11:31:31.073Z,24.10
2023-05-07T11:33:59.800Z,24.20
2023-05-07T11:36:33.899Z,24.30
2023-05-07T11:39:02.117Z,24.10
2023-05-07T11:41:38.061Z,24.10
2023-05-07T11:44:07.553Z,24.10
2023-05-07T11:46:36.089Z,24.20
2023-05-07T11:49:04.122Z,24.10
2023-05-07T11:51:32.813Z,24.10
2023-05-07T11:54:00.899Z,24.20
2023-05-07T11:56:28.937Z,24.30
2023-05-07T11:58:56.913Z,24.00
2023-05-07T12:01:26.279Z,24.10
2023-05-07T12:03:54.405Z,24.00
2023-05-07T12:06:22.590Z,24.00
2023-05-07T12:08:50.567Z,24.00
2023-05-07T12:11:25.977Z,24.10
2023-05-07T12:13:58.846Z,24.30
2023-05-07T12:16:29.325Z,24.10
2023-05-07T12:18:59.789Z,24.00
2023-05-07T12:21:27.845Z,23.90
2023-05-07T12:23:56.333Z,24.00
2023-05-07T12:26:25.591Z,24.00
2023-05-07T12:28:53.513Z,23.90
2023-05-07T12:31:21.627Z,24.10
2023-05-07T12:33:51.526Z,23.90
2023-05-07T12:36:19.535Z,23.70
2023-05-07T12:38:47.569Z,24.00
2023-05-07T12:41:15.693Z,24.00
2023-05-07T12:43:46.800Z,23.90
2023-05-07T12:46:17.548Z,23.90
2023-05-07T12:48:47.556Z,23.80
2023-05-07T12:51:18.177Z,24.10
2023-05-07T12:53:46.116Z,24.00
2023-05-07T12:56:14.172Z,23.80
2023-05-07T12:58:42.543Z,24.00
2023-05-07T13:01:12.130Z,24.00
2023-05-07T13:03:40.990Z,23.90
2023-05-07T13:06:13.069Z,23.90
2023-05-07T13:08:44.663Z,24.10
2023-05-07T13:11:14.240Z,23.90
2023-05-07T13:13:43.380Z,23.90
2023-05-07T13:16:13.318Z,24.10
2023-05-07T13:18:44.718Z,23.80
2023-05-07T13:21:13.949Z,23.90
2023-05-07T13:23:43.399Z,23.90
2023-05-07T13:26:25.560Z,23.80
2023-05-07T13:28:54.988Z,23.90
2023-05-07T13:31:22.999Z,24.00
2023-05-07T13:33:51.075Z,23.80
2023-05-07T13:36:19.080Z,23.90
2023-05-07T13:38:48.507Z,23.80
2023-05-07T13:41:16.760Z,23.90
2023-05-07T13:43:44.730Z,23.90
2023-05-07T13:46:12.772Z,23.80
2023-05-07T13:48:40.759Z,24.20
2023-05-07T13:51:08.836Z,24.00
2023-05-07T13:53:37.136Z,23.90
2023-05-07T13:56:07.237Z,23.90
2023-05-07T13:58:38.108Z,23.80
2023-05-07T14:01:08.492Z,23.90
2023-05-07T14:03:38.809Z,23.90
2023-05-07T14:06:07.234Z,24.00
2023-05-07T14:08:35.204Z,24.00
2023-05-07T14:11:03.204Z,24.00
2023-05-07T14:13:32.810Z,24.20
2023-05-07T14:16:01.501Z,23.90
2023-05-07T14:18:29.982Z,24.10
2023-05-07T14:20:58.124Z,24.00
2023-05-07T14:23:27.367Z,24.00
2023-05-07T14:25:55.631Z,23.90
2023-05-07T14:28:23.714Z,24.10
2023-05-07T14:30:53.103Z,24.10
2023-05-07T14:33:21.079Z,23.90
2023-05-07T14:35:50.314Z,24.00
2023-05-07T14:38:18.325Z,23.90
2023-05-07T14:40:47.391Z,24.20
2023-05-07T14:43:15.398Z,23.90
2023-05-07T14:45:43.516Z,23.90
2023-05-07T14:48:16.058Z,23.90
2023-05-07T14:50:44.195Z,24.10
2023-05-07T14:53:12.248Z,23.80
2023-05-07T14:55:40.392Z,24.00
2023-05-07T14:58:08.450Z,23.90
2023-05-07T15:00:36.652Z,23.90
2023-05-07T15:03:09.659Z,24.00
2023-05-07T15:05:40.639Z,23.80
2023-05-07T15:08:08.641Z,23.90
2023-05-07T15:10:41.773Z,23.70
2023-05-07T15:13:13.308Z,24.10
2023-05-07T15:15:43.640Z,23.80
2023-05-07T15:18:11.658Z,24.00
2023-05-07T15:20:41.114Z,23.90
2023-05-07T15:23:12.785Z,23.90
2023-05-07T15:25:40.912Z,24.20
2023-05-07T15:28:09.475Z,23.80
2023-05-07T15:30:37.698Z,23.90
2023-05-07T15:33:06.421Z,24.10
2023-05-07T15:35:34.648Z,24.00
2023-05-07T15:38:04.581Z,23.90
2023-05-07T15:40:33.711Z,24.10
2023-05-07T15:43:01.787Z,23.90
2023-05-07T15:45:31.207Z,24.10
2023-05-07T15:47:59.495Z,24.00
2023-05-07T15:50:27.665Z,24.00
2023-05-07T15:52:56.418Z,24.30
2023-05-07T15:55:25.976Z,24.10
2023-05-07T15:57:55.049Z,23.90
2023-05-07T16:00:23.430Z,24.10
2023-05-07T16:02:51.651Z,24.10
2023-05-07T16:05:19.769Z,23.80
2023-05-07T16:07:48.559Z,24.10
2023-05-07T16:10:16.657Z,24.10
2023-05-07T16:12:46.540Z,24.40
2023-05-07T16:15:14.810Z,24.00
2023-05-07T16:17:42.998Z,24.00
2023-05-07T16:20:13.156Z,24.10
2023-05-07T16:22:41.427Z,23.90
2023-05-07T16:25:11.060Z,24.30
2023-05-07T16:27:39.284Z,24.00
2023-05-07T16:30:10.525Z,24.30
2023-05-07T16:32:38.543Z,24.00
2023-05-07T16:35:07.954Z,24.30
2023-05-07T16:37:35.957Z,24.00
2023-05-07T16:40:07.259Z,24.10
2023-05-07T16:42:35.427Z,24.10
2023-05-07T16:45:04.745Z,23.90
2023-05-07T16:47:34.704Z,24.30
2023-05-07T16:50:05.433Z,24.10
2023-05-07T16:52:34.110Z,24.40
2023-05-07T16:55:02.138Z,24.00
2023-05-07T16:57:31.369Z,24.10
2023-05-07T17:00:00.556Z,24.20
2023-05-07T17:02:28.957Z,24.00
2023-05-07T17:04:58.384Z,24.10
2023-05-07T17:07:27.777Z,24.10
2023-05-07T17:09:55.748Z,23.80
2023-05-07T17:12:23.797Z,24.10
2023-05-07T17:14:51.855Z,24.10
2023-05-07T17:17:19.886Z,23.90
2023-05-07T17:19:47.889Z,24.20
2023-05-07T17:22:17.451Z,24.20
2023-05-07T17:24:45.551Z,23.90
2023-05-07T17:27:13.525Z,24.10
2023-05-07T17:29:41.682Z,23.90
2023-05-07T17:32:09.843Z,24.00
2023-05-07T17:34:38.010Z,24.00
2023-05-07T17:37:06.029Z,24.00
2023-05-07T17:39:35.359Z,23.90
2023-05-07T17:42:03.366Z,23.80
2023-05-07T17:44:31.487Z,23.90
2023-05-07T17:46:59.458Z,23.90
2023-05-07T17:49:27.652Z,23.90
2023-05-07T17:51:56.097Z,23.80
2023-05-07T17:54:25.925Z,24.20
2023-05-07T17:56:55.274Z,24.00
2023-05-07T17:59:23.236Z,24.00
2023-05-07T18:01:51.230Z,23.90
2023-05-07T18:04:21.377Z,24.00
2023-05-07T18:06:49.633Z,23.90
2023-05-07T18:09:17.594Z,23.80
2023-05-07T18:11:45.723Z,23.80
2023-05-07T18:14:15.053Z,24.10
2023-05-07T18:16:43.229Z,24.00
2023-05-07T18:19:12.000Z,23.80
2023-05-07T18:21:40.008Z,23.80
2023-05-07T18:24:09.443Z,23.70
2023-05-07T18:26:37.402Z,23.80
2023-05-07T18:29:05.447Z,23.90
2023-05-07T18:31:36.917Z,23.80
2023-05-07T18:34:06.560Z,24.10
2023-05-07T18:36:34.825Z,23.80
2023-05-07T18:39:03.679Z,23.70
2023-05-07T18:41:31.716Z,23.80
2023-05-07T18:43:59.694Z,23.90
2023-05-07T18:46:29.226Z,23.80
2023-05-07T18:48:58.773Z,23.80
2023-05-07T18:51:27.538Z,23.90
2023-05-07T18:53:55.517Z,23.40
2023-05-07T18:56:23.499Z,23.80
2023-05-07T18:58:51.465Z,23.60
2023-05-07T19:01:19.544Z,23.70
2023-05-07T19:03:47.565Z,23.70
2023-05-07T19:06:16.947Z,23.70
2023-05-07T19:08:45.052Z,23.90
2023-05-07T19:11:13.062Z,23.40
2023-05-07T19:13:41.123Z,23.80
2023-05-07T19:16:10.282Z,23.80
2023-05-07T19:18:38.400Z,23.30
2023-05-07T19:21:06.568Z,23.60
2023-05-07T19:23:41.431Z,23.40
2023-05-07T19:26:10.098Z,23.60
2023-05-07T19:28:39.093Z,23.70
2023-05-07T19:31:08.384Z,23.30
2023-05-07T19:33:36.426Z,23.40
2023-05-07T19:36:04.775Z,23.60
2023-05-07T19:38:32.800Z,23.60
2023-05-07T19:41:02.596Z,23.60
2023-05-07T19:43:35.854Z,23.20
2023-05-07T19:46:03.950Z,23.40
2023-05-07T19:48:32.083Z,23.40
2023-05-07T19:51:00.525Z,23.60
2023-05-07T19:53:30.097Z,23.30
2023-05-07T19:56:07.268Z,23.20
2023-05-07T19:58:36.206Z,23.30
2023-05-07T20:01:06.152Z,23.30
2023-05-07T20:03:35.459Z,23.30
2023-05-07T20:06:04.150Z,23.40
2023-05-07T20:08:32.245Z,23.30
2023-05-07T20:11:00.655Z,23.20
2023-05-07T20:13:30.007Z,23.70
2023-05-07T20:15:59.680Z,23.70
2023-05-07T20:18:29.593Z,23.30
2023-05-07T20:20:57.901Z,23.10
2023-05-07T20:23:26.389Z,23.20
2023-05-07T20:25:54.540Z,23.10
2023-05-07T20:28:22.526Z,23.20
2023-05-07T20:30:52.056Z,23.20
2023-05-07T20:33:20.064Z,23.30
2023-05-07T20:35:48.125Z,23.20
2023-05-07T20:38:16.292Z,23.20
2023-05-07T20:40:44.320Z,23.60
2023-05-07T20:43:12.455Z,23.60
2023-05-07T20:45:40.527Z,23.20
2023-05-07T20:48:09.946Z,23.10
2023-05-07T20:50:37.916Z,23.10
2023-05-07T20:53:05.909Z,23.40
2023-05-07T20:55:33.941Z,23.50
2023-05-07T20:58:02.096Z,23.20
2023-05-07T21:00:30.160Z,23.10
2023-05-07T21:02:58.163Z,23.20
2023-05-07T21:05:27.543Z,23.10
2023-05-07T21:07:56.267Z,23.30
2023-05-07T21:10:24.321Z,23.40
2023-05-07T21:12:52.359Z,23.10
2023-05-07T21:15:20.367Z,23.20
2023-05-07T21:17:48.442Z,23.20
2023-05-07T21:20:16.690Z,23.40
2023-05-07T21:22:46.055Z,23.00
2023-05-07T21:25:14.244Z,23.20
2023-05-07T21:27:42.217Z,23.10
2023-05-07T21:30:12.265Z,23.20
2023-05-07T21:32:40.469Z,23.10
2023-05-07T21:35:09.649Z,23.00
2023-05-07T21:37:37.779Z,23.10
2023-05-07T21:40:09.438Z,23.00
2023-05-07T21:42:37.369Z,23.10
2023-05-07T21:45:07.039Z,23.10
2023-05-07T21:47:35.134Z,23.20
2023-05-07T21:50:03.221Z,22.70
2023-05-07T21:52:31.303Z,23.30
2023-05-07T21:54:59.305Z,23.10
2023-05-07T21:57:28.673Z,23.20
2023-05-07T21:59:56.722Z,22.90
2023-05-07T22:02:24.943Z,23.10
2023-05-07T22:04:53.073Z,22.90
2023-05-07T22:07:21.432Z,23.00
2023-05-07T22:09:49.415Z,23.40
2023-05-07T22:12:17.492Z,23.00
2023-05-07T22:14:46.886Z,23.10
2023-05-07T22:17:14.859Z,23.20
2023-05-07T22:19:42.839Z,23.30
2023-05-07T22:22:11.365Z,23.10
2023-05-07T22:24:39.439Z,23.20
2023-05-07T22:27:07.407Z,23.00
2023-05-07T22:29:35.506Z,23.20
2023-05-07T22:32:05.252Z,22.90
2023-05-07T22:34:34.433Z,23.00
2023-05-07T22:37:02.454Z,22.60
2023-05-07T22:39:34.313Z,23.00
2023-05-07T22:42:03.160Z,23.20
2023-05-07T22:44:31.154Z,23.20
2023-05-07T22:46:59.170Z,22.60
2023-05-07T22:49:28.501Z,23.10
2023-05-07T22:51:56.459Z,23.00
2023-05-07T22:54:25.563Z,22.90
2023-05-07T22:56:54.099Z,23.00
2023-05-07T22:59:22.452Z,22.90
2023-05-07T23:01:50.746Z,23.00
2023-05-07T23:04:18.759Z,22.80
2023-05-07T23:06:48.195Z,22.90
2023-05-07T23:09:16.374Z,23.20
2023-05-07T23:11:44.418Z,23.10
2023-05-07T23:14:12.558Z,22.60
2023-05-07T23:16:40.649Z,22.60
2023-05-07T23:19:08.712Z,23.20
2023-05-07T23:21:36.863Z,22.70
2023-05-07T23:24:07.507Z,23.20
2023-05-07T23:26:35.538Z,23.10
2023-05-07T23:29:04.520Z,22.90
2023-05-07T23:31:32.638Z,22.90
2023-05-07T23:34:00.619Z,23.10
2023-05-07T23:36:29.251Z,22.80
2023-05-07T23:38:57.229Z,23.00
2023-05-07T23:41:26.773Z,23.00
2023-05-07T23:43:54.938Z,23.00
2023-05-07T23:46:23.065Z,22.70
2023-05-07T23:48:51.103Z,22.80
2023-05-07T23:51:19.121Z,22.90
2023-05-07T23:53:47.086Z,22.90
2023-05-07T23:56:15.133Z,22.50
2023-05-07T23:58:44.458Z,22.90
